Nearby METAR Reports

 

EGKB - Biggin Hill, United Kingdom
Distance from station: S 5mi, 8km
Updated: 23/04/2014 20:50
NOT Current
Light drizzle, Few clouds
Light drizzle, Few clouds
 Wind from S
Wind: S 5 mph , 7 km/h
Temperature: 10°C
Wind Chill: 9°C
Dew Point: 9°C
Humidity: 94%
Barometer: 1019 hPa
Summary: Light Drizzle
Clouds: Few Clouds
Visibility: 4 miles , 6 km
Cloud details: Few Clouds 152 m
2014/04/23 19:50 EGKB 231950Z 19004KT 160V230 6000 -DZ FEW005 10/09 Q1019
EGLC - London City Airp, United Kingdom
Distance from station: NNE 8mi, 13km
Updated: 24/04/2014 01:20
Overcast
Overcast
 Wind from SW
Wind: SW 5 mph , 7 km/h
Temperature: 12°C
Dew Point: 10°C
Humidity: 88%
Barometer: 1020 hPa
Clouds: Overcast
Visibility: 6 miles , 10 km
Cloud details: Partly cloudy 792 m
Overcast 1067 m
2014/04/24 00:20 EGLC 240020Z AUTO 22004KT 9999 SCT026/// OVC035/// 12/10 Q1020
 
EGKK - London/Gatwick A, United Kingdom
Distance from station: SSW 19mi, 31km
Updated: 24/04/2014 01:20
Haze, Mostly cloudy
Haze, Mostly cloudy
 Wind from S
Wind: S 2 mph , 4 km/h
Temperature: 10°C
Dew Point: 9°C
Humidity: 94%
Barometer: 1020 hPa
Summary: Haze
Clouds: Mostly cloudy
Visibility: 3 miles , 5 km
Cloud details: Few Clouds 213 m
Mostly cloudy 853 m
2014/04/24 00:20 EGKK 240020Z 17002KT 5000 HZ FEW007 BKN028 10/09 Q1020
EGLL - London/Heathrow, United Kingdom
Distance from station: WNW 21mi, 33km
Updated: 24/04/2014 01:20
Partly cloudy
Partly cloudy
 Wind from S
Wind: S 5 mph , 7 km/h
Temperature: 11°C
Dew Point: 10°C
Humidity: 94%
Barometer: 1020 hPa
Clouds: Partly cloudy
Visibility: 6 miles , 9 km
Cloud details: Few Clouds 945 m
Partly cloudy 1189 m
2014/04/24 00:20 EGLL 240020Z AUTO 18004KT 9000 FEW031 SCT039 11/10 Q1020